createdAt,value
2018-11-21T00:00:05.139Z,974.51
2018-11-21T00:01:05.329Z,974.40
2018-11-21T00:02:05.258Z,974.46
2018-11-21T00:03:05.071Z,974.62
2018-11-21T00:04:05.057Z,974.57
2018-11-21T00:05:04.674Z,974.59
2018-11-21T00:06:05.052Z,974.54
2018-11-21T00:07:04.652Z,974.59
2018-11-21T00:08:04.748Z,974.71
2018-11-21T00:09:05.157Z,974.46
2018-11-21T00:10:05.185Z,974.62
2018-11-21T00:11:05.010Z,974.62
2018-11-21T00:12:05.005Z,974.62
2018-11-21T00:13:05.051Z,974.59
2018-11-21T00:14:04.682Z,974.62
2018-11-21T00:15:05.010Z,974.62
2018-11-21T00:16:05.459Z,974.65
2018-11-21T00:17:05.541Z,974.65
2018-11-21T00:18:05.424Z,974.68
2018-11-21T00:19:05.014Z,974.62
2018-11-21T00:20:05.059Z,974.65
2018-11-21T00:21:04.702Z,974.65
2018-11-21T00:22:05.156Z,974.65
2018-11-21T00:23:04.651Z,974.70
2018-11-21T00:24:04.993Z,974.57
2018-11-21T00:25:05.190Z,974.68
2018-11-21T00:26:04.514Z,974.65
2018-11-21T00:27:05.186Z,974.73
2018-11-21T00:28:10.338Z,974.57
2018-11-21T00:29:04.754Z,974.65
2018-11-21T00:30:04.655Z,974.51
2018-11-21T00:31:04.772Z,974.62
2018-11-21T00:32:04.710Z,974.59
2018-11-21T00:33:05.600Z,974.54
2018-11-21T00:34:05.210Z,974.54
2018-11-21T00:35:05.297Z,974.62
2018-11-21T00:36:05.323Z,974.48
2018-11-21T00:37:04.901Z,974.59
2018-11-21T00:38:04.872Z,974.62
2018-11-21T00:39:05.402Z,974.59
2018-11-21T00:40:04.994Z,974.54
2018-11-21T00:41:04.709Z,974.54
2018-11-21T00:42:04.673Z,974.65
2018-11-21T00:43:04.765Z,974.54
2018-11-21T00:44:04.788Z,974.56
2018-11-21T00:45:04.793Z,974.70
2018-11-21T00:46:05.143Z,974.59
2018-11-21T00:47:04.564Z,974.65
2018-11-21T00:48:05.111Z,974.62
2018-11-21T00:49:05.466Z,974.62
2018-11-21T00:50:05.230Z,974.62
2018-11-21T00:51:04.808Z,974.76
2018-11-21T00:52:04.824Z,974.59
2018-11-21T00:53:10.031Z,974.54
2018-11-21T00:54:05.388Z,974.59
2018-11-21T00:55:05.310Z,974.62
2018-11-21T00:56:04.534Z,974.67
2018-11-21T00:57:04.596Z,974.70
2018-11-21T00:58:04.622Z,974.67
2018-11-21T00:59:04.897Z,974.67
2018-11-21T01:00:05.170Z,974.70
2018-11-21T01:01:05.425Z,974.67
2018-11-21T01:02:05.298Z,974.67
2018-11-21T01:03:04.787Z,974.70
2018-11-21T01:04:05.001Z,974.62
2018-11-21T01:05:05.291Z,974.56
2018-11-21T01:06:04.534Z,974.51
2018-11-21T01:07:05.102Z,974.56
2018-11-21T01:08:04.699Z,974.62
2018-11-21T01:09:05.083Z,974.51
2018-11-21T01:10:04.585Z,974.64
2018-11-21T01:11:05.142Z,974.59
2018-11-21T01:12:04.759Z,974.62
2018-11-21T01:13:04.718Z,974.56
2018-11-21T01:14:05.139Z,974.51
2018-11-21T01:15:04.732Z,974.62
2018-11-21T01:16:04.709Z,974.48
2018-11-21T01:17:04.899Z,974.45
2018-11-21T01:18:04.953Z,974.59
2018-11-21T01:19:04.965Z,974.62
2018-11-21T01:20:05.324Z,974.59
2018-11-21T01:21:05.000Z,974.56
2018-11-21T01:22:04.612Z,974.70
2018-11-21T01:23:05.122Z,974.62
2018-11-21T01:24:05.093Z,974.56
2018-11-21T01:25:05.344Z,974.64
2018-11-21T01:26:04.697Z,974.65
2018-11-21T01:27:04.769Z,974.87
2018-11-21T01:28:09.699Z,974.62
2018-11-21T01:29:04.940Z,974.62
2018-11-21T01:30:05.333Z,974.67
2018-11-21T01:31:05.171Z,974.56
2018-11-21T01:32:04.635Z,974.59
2018-11-21T01:33:10.056Z,974.48
2018-11-21T01:34:04.656Z,974.62
2018-11-21T01:35:05.071Z,974.65
2018-11-21T01:36:05.074Z,974.67
2018-11-21T01:37:05.007Z,974.70
2018-11-21T01:38:05.096Z,974.76
2018-11-21T01:39:04.708Z,974.73
2018-11-21T01:40:04.727Z,974.59
2018-11-21T01:41:04.989Z,974.56
2018-11-21T01:42:04.870Z,974.70
2018-11-21T01:43:04.935Z,974.53
2018-11-21T01:44:05.027Z,974.62
2018-11-21T01:45:05.063Z,974.56
2018-11-21T01:46:05.162Z,974.64
2018-11-21T01:47:05.276Z,974.62
2018-11-21T01:48:10.347Z,974.64
2018-11-21T01:49:04.690Z,974.67
2018-11-21T01:50:04.667Z,974.62
2018-11-21T01:51:04.795Z,974.62
2018-11-21T01:52:05.461Z,974.76
2018-11-21T01:53:05.436Z,974.62
2018-11-21T01:54:04.495Z,974.62
2018-11-21T01:55:04.460Z,974.56
2018-11-21T01:56:04.706Z,974.59
2018-11-21T01:57:05.073Z,974.62
2018-11-21T01:58:05.173Z,974.76
2018-11-21T01:59:05.266Z,974.70
2018-11-21T02:00:05.339Z,974.81
2018-11-21T02:01:04.627Z,974.67
2018-11-21T02:02:05.067Z,974.67
2018-11-21T02:03:04.584Z,974.62
2018-11-21T02:04:04.882Z,974.59
2018-11-21T02:05:04.966Z,974.65
2018-11-21T02:06:04.981Z,974.62
2018-11-21T02:07:05.215Z,974.67
2018-11-21T02:08:05.353Z,974.62
2018-11-21T02:09:04.693Z,974.59
2018-11-21T02:10:04.713Z,974.67
2018-11-21T02:11:04.867Z,974.62
2018-11-21T02:12:04.822Z,974.65
2018-11-21T02:13:04.836Z,974.53
2018-11-21T02:14:05.401Z,974.48
2018-11-21T02:15:04.606Z,974.51
2018-11-21T02:16:04.581Z,974.59
2018-11-21T02:17:04.605Z,974.56
2018-11-21T02:18:04.601Z,974.65
2018-11-21T02:19:04.681Z,974.73
2018-11-21T02:20:04.698Z,974.67
2018-11-21T02:21:04.821Z,974.48
2018-11-21T02:22:04.945Z,974.51
2018-11-21T02:23:04.474Z,974.42
2018-11-21T02:24:04.998Z,974.51
2018-11-21T02:25:05.269Z,974.59
2018-11-21T02:26:05.271Z,974.65
2018-11-21T02:27:05.437Z,974.42
2018-11-21T02:28:10.350Z,974.59
2018-11-21T02:29:04.634Z,974.56
2018-11-21T02:30:04.737Z,974.51
2018-11-21T02:31:04.928Z,974.54
2018-11-21T02:32:04.586Z,974.54
2018-11-21T02:33:05.015Z,974.51
2018-11-21T02:34:04.990Z,974.56
2018-11-21T02:35:05.326Z,974.51
2018-11-21T02:36:05.272Z,974.59
2018-11-21T02:37:05.212Z,974.70
2018-11-21T02:38:04.654Z,974.51
2018-11-21T02:39:04.670Z,974.56
2018-11-21T02:40:04.837Z,974.65
2018-11-21T02:41:05.473Z,974.56
2018-11-21T02:42:04.582Z,974.54
2018-11-21T02:43:04.981Z,974.62
2018-11-21T02:44:05.308Z,974.67
2018-11-21T02:45:04.598Z,974.54
2018-11-21T02:46:04.759Z,974.54
2018-11-21T02:47:04.899Z,974.51
2018-11-21T02:48:09.572Z,974.48
2018-11-21T02:49:04.913Z,974.56
2018-11-21T02:50:04.553Z,974.56
2018-11-21T02:51:04.663Z,974.62
2018-11-21T02:52:04.651Z,974.62
2018-11-21T02:53:04.896Z,974.48
2018-11-21T02:54:05.376Z,974.48
2018-11-21T02:55:04.749Z,974.51
2018-11-21T02:56:04.849Z,974.54
2018-11-21T02:57:05.146Z,974.48
2018-11-21T02:58:05.221Z,974.51
2018-11-21T02:59:04.595Z,974.45
2018-11-21T03:00:04.567Z,974.54
2018-11-21T03:01:04.537Z,974.67
2018-11-21T03:02:04.619Z,974.48
2018-11-21T03:03:04.997Z,974.54
2018-11-21T03:04:05.187Z,974.48
2018-11-21T03:05:05.396Z,974.45
2018-11-21T03:06:04.658Z,974.37
2018-11-21T03:07:04.668Z,974.40
2018-11-21T03:08:04.652Z,974.51
2018-11-21T03:09:04.834Z,974.62
2018-11-21T03:10:04.848Z,974.42
2018-11-21T03:11:04.842Z,974.59
2018-11-21T03:12:04.872Z,974.62
2018-11-21T03:13:05.019Z,974.65
2018-11-21T03:14:04.873Z,974.59
2018-11-21T03:15:04.880Z,974.62
2018-11-21T03:16:05.422Z,974.48
2018-11-21T03:17:04.721Z,974.67
2018-11-21T03:18:04.643Z,974.59
2018-11-21T03:19:04.860Z,974.62
2018-11-21T03:20:05.019Z,974.70
2018-11-21T03:21:04.975Z,974.56
2018-11-21T03:22:05.447Z,974.62
2018-11-21T03:23:05.372Z,974.70
2018-11-21T03:24:05.254Z,974.73
2018-11-21T03:25:04.907Z,974.73
2018-11-21T03:26:04.916Z,974.65
2018-11-21T03:27:04.971Z,974.62
2018-11-21T03:28:10.257Z,974.70
2018-11-21T03:29:04.623Z,974.62
2018-11-21T03:30:04.557Z,974.79
2018-11-21T03:31:05.227Z,974.70
2018-11-21T03:32:05.235Z,974.73
2018-11-21T03:33:05.201Z,974.87
2018-11-21T03:34:04.548Z,974.59
2018-11-21T03:35:04.685Z,974.82
2018-11-21T03:36:04.683Z,974.82
2018-11-21T03:37:05.437Z,974.82
2018-11-21T03:38:05.330Z,974.82
2018-11-21T03:39:05.440Z,974.93
2018-11-21T03:40:04.733Z,974.68
2018-11-21T03:41:05.007Z,974.82
2018-11-21T03:42:04.421Z,974.73
2018-11-21T03:43:05.058Z,974.76
2018-11-21T03:44:05.201Z,974.76
2018-11-21T03:45:05.169Z,974.84
2018-11-21T03:46:04.828Z,975.00
2018-11-21T03:47:04.831Z,974.85
2018-11-21T03:48:05.322Z,974.95
2018-11-21T03:49:04.651Z,975.12
2018-11-21T03:50:04.599Z,975.00
2018-11-21T03:51:04.763Z,975.00
2018-11-21T03:52:04.775Z,975.17
2018-11-21T03:53:04.876Z,975.09
2018-11-21T03:54:04.703Z,975.00
2018-11-21T03:55:05.333Z,975.14
2018-11-21T03:56:04.847Z,975.00
2018-11-21T03:57:04.784Z,975.03
2018-11-21T03:58:04.884Z,975.00
2018-11-21T03:59:05.202Z,975.09
2018-11-21T04:00:05.213Z,975.15
2018-11-21T04:01:05.216Z,975.14
2018-11-21T04:02:05.265Z,975.23
2018-11-21T04:03:05.497Z,975.09
2018-11-21T04:04:04.785Z,975.17
2018-11-21T04:05:05.022Z,975.33
2018-11-21T04:06:05.274Z,975.28
2018-11-21T04:07:04.487Z,975.31
2018-11-21T04:08:04.647Z,975.17
2018-11-21T04:09:05.057Z,975.23
2018-11-21T04:10:05.042Z,975.31
2018-11-21T04:11:04.936Z,975.26
2018-11-21T04:12:04.568Z,975.20
2018-11-21T04:13:04.720Z,975.20
2018-11-21T04:14:04.757Z,975.26
2018-11-21T04:15:05.282Z,975.33
2018-11-21T04:16:05.252Z,975.20
2018-11-21T04:17:04.610Z,975.20
2018-11-21T04:18:04.694Z,975.20
2018-11-21T04:19:04.730Z,975.20
2018-11-21T04:20:05.323Z,975.23
2018-11-21T04:21:04.472Z,975.26
2018-11-21T04:22:04.662Z,975.31
2018-11-21T04:23:04.712Z,975.31
2018-11-21T04:24:04.848Z,975.33
2018-11-21T04:25:05.017Z,975.31
2018-11-21T04:26:04.706Z,975.31
2018-11-21T04:27:04.757Z,975.23
2018-11-21T04:28:10.436Z,975.26
2018-11-21T04:29:04.902Z,975.28
2018-11-21T04:30:04.833Z,975.26
2018-11-21T04:31:04.941Z,975.28
2018-11-21T04:32:05.184Z,975.36
2018-11-21T04:33:04.986Z,975.33
2018-11-21T04:34:05.032Z,975.28
2018-11-21T04:35:05.244Z,975.28
2018-11-21T04:36:05.247Z,975.33
2018-11-21T04:37:04.438Z,975.36
2018-11-21T04:38:05.550Z,975.38
2018-11-21T04:39:05.434Z,975.44
2018-11-21T04:40:05.403Z,975.41
2018-11-21T04:41:05.018Z,975.41
2018-11-21T04:42:04.844Z,975.28
2018-11-21T04:43:04.464Z,975.47
2018-11-21T04:44:04.555Z,975.26
2018-11-21T04:45:05.133Z,975.38
2018-11-21T04:46:04.553Z,975.36
2018-11-21T04:47:04.498Z,975.36
2018-11-21T04:48:05.092Z,975.44
2018-11-21T04:49:05.186Z,975.44
2018-11-21T04:50:05.027Z,975.44
2018-11-21T04:51:05.234Z,975.52
2018-11-21T04:52:04.487Z,975.38
2018-11-21T04:53:04.727Z,975.36
2018-11-21T04:54:04.794Z,975.41
2018-11-21T04:55:05.186Z,975.52
2018-11-21T04:56:05.552Z,975.61
2018-11-21T04:57:05.093Z,975.52
2018-11-21T04:58:05.140Z,975.52
2018-11-21T04:59:05.343Z,975.47
2018-11-21T05:00:05.384Z,975.55
2018-11-21T05:01:05.448Z,975.50
2018-11-21T05:02:05.484Z,975.58
2018-11-21T05:03:04.484Z,975.66
2018-11-21T05:04:04.466Z,975.41
2018-11-21T05:05:05.004Z,975.55
2018-11-21T05:06:04.979Z,975.55
2018-11-21T05:07:05.014Z,975.52
2018-11-21T05:08:05.323Z,975.58
2018-11-21T05:09:05.440Z,975.61
2018-11-21T05:10:05.278Z,975.61
2018-11-21T05:11:06.724Z,975.66
2018-11-21T05:12:05.400Z,975.58
2018-11-21T05:13:04.694Z,975.69
2018-11-21T05:14:04.878Z,975.55
2018-11-21T05:15:04.823Z,975.66
2018-11-21T05:16:05.017Z,975.66
2018-11-21T05:17:05.081Z,975.72
2018-11-21T05:18:05.330Z,975.80
2018-11-21T05:19:04.606Z,975.61
2018-11-21T05:20:05.021Z,975.66
2018-11-21T05:21:05.149Z,975.58
2018-11-21T05:22:05.120Z,975.66
2018-11-21T05:23:05.124Z,975.66
2018-11-21T05:24:05.181Z,975.80
2018-11-21T05:25:05.760Z,975.66
2018-11-21T05:26:04.641Z,975.63
2018-11-21T05:27:04.787Z,975.63
2018-11-21T05:28:10.309Z,975.75
2018-11-21T05:29:04.688Z,975.75
2018-11-21T05:30:04.788Z,975.69
2018-11-21T05:31:04.741Z,975.75
2018-11-21T05:32:04.946Z,975.77
2018-11-21T05:33:05.251Z,975.77
2018-11-21T05:34:04.666Z,975.75
2018-11-21T05:35:04.642Z,975.69
2018-11-21T05:36:04.585Z,975.72
2018-11-21T05:37:04.589Z,975.58
2018-11-21T05:38:04.735Z,975.58
2018-11-21T05:39:04.455Z,975.77
2018-11-21T05:40:04.855Z,975.66
2018-11-21T05:41:05.109Z,975.72
2018-11-21T05:42:05.151Z,975.69
2018-11-21T05:43:04.714Z,975.77
2018-11-21T05:44:04.832Z,975.83
2018-11-21T05:45:04.903Z,975.69
2018-11-21T05:46:05.253Z,975.88
2018-11-21T05:47:05.346Z,975.78
2018-11-21T05:48:05.246Z,975.72
2018-11-21T05:49:05.504Z,975.75
2018-11-21T05:50:05.476Z,975.78
2018-11-21T05:51:05.393Z,975.91
2018-11-21T05:52:04.825Z,975.97
2018-11-21T05:53:04.771Z,975.94
2018-11-21T05:54:04.914Z,975.97
2018-11-21T05:55:05.237Z,975.77
2018-11-21T05:56:05.301Z,975.69
2018-11-21T05:57:05.369Z,975.80
2018-11-21T05:58:05.371Z,975.91
2018-11-21T05:59:04.458Z,975.91
2018-11-21T06:00:04.549Z,975.89
2018-11-21T06:01:04.614Z,975.97
2018-11-21T06:02:04.649Z,975.86
2018-11-21T06:03:05.129Z,975.97
2018-11-21T06:04:05.036Z,975.94
2018-11-21T06:05:05.035Z,976.06
2018-11-21T06:06:10.413Z,975.89
2018-11-21T06:07:04.927Z,976.06
2018-11-21T06:08:05.212Z,976.06
2018-11-21T06:09:05.064Z,976.08
2018-11-21T06:10:04.582Z,976.00
2018-11-21T06:11:04.870Z,976.17
2018-11-21T06:12:04.934Z,976.08
2018-11-21T06:13:04.652Z,976.11
2018-11-21T06:14:04.685Z,976.14
2018-11-21T06:15:04.671Z,976.11
2018-11-21T06:16:05.041Z,976.08
2018-11-21T06:17:05.082Z,976.14
2018-11-21T06:18:05.125Z,976.08
2018-11-21T06:19:04.482Z,975.97
2018-11-21T06:20:04.589Z,976.17
2018-11-21T06:21:04.961Z,976.06
2018-11-21T06:22:05.377Z,976.06
2018-11-21T06:23:05.381Z,976.17
2018-11-21T06:24:05.323Z,976.22
2018-11-21T06:25:05.369Z,976.14
2018-11-21T06:26:05.364Z,976.17
2018-11-21T06:27:05.364Z,976.25
2018-11-21T06:28:09.907Z,976.14
2018-11-21T06:29:05.772Z,976.14
2018-11-21T06:30:04.623Z,976.33
2018-11-21T06:31:04.712Z,976.20
2018-11-21T06:32:04.629Z,976.17
2018-11-21T06:33:04.766Z,976.31
2018-11-21T06:34:05.114Z,976.28
2018-11-21T06:35:04.999Z,976.28
2018-11-21T06:36:05.072Z,976.28
2018-11-21T06:37:04.562Z,976.28
2018-11-21T06:38:05.110Z,976.28
2018-11-21T06:39:05.095Z,976.17
2018-11-21T06:40:05.083Z,976.22
2018-11-21T06:41:05.148Z,976.28
2018-11-21T06:42:05.259Z,976.39
2018-11-21T06:43:05.283Z,976.36
2018-11-21T06:44:05.275Z,976.42
2018-11-21T06:45:04.819Z,976.45
2018-11-21T06:46:04.530Z,976.56
2018-11-21T06:47:05.067Z,976.42
2018-11-21T06:48:10.123Z,976.45
2018-11-21T06:49:04.456Z,976.45
2018-11-21T06:50:05.124Z,976.47
2018-11-21T06:51:05.006Z,976.50
2018-11-21T06:52:05.036Z,976.59
2018-11-21T06:53:04.752Z,976.50
2018-11-21T06:54:05.098Z,976.45
2018-11-21T06:55:05.156Z,976.45
2018-11-21T06:56:05.170Z,976.61
2018-11-21T06:57:05.408Z,976.42
2018-11-21T06:58:05.439Z,976.56
2018-11-21T06:59:04.621Z,976.42
2018-11-21T07:00:05.109Z,976.56
2018-11-21T07:01:05.331Z,976.56
2018-11-21T07:02:05.180Z,976.56
2018-11-21T07:03:05.211Z,976.67
2018-11-21T07:04:04.869Z,976.53
2018-11-21T07:05:04.790Z,976.53
2018-11-21T07:06:05.116Z,976.58
2018-11-21T07:07:05.355Z,976.64
2018-11-21T07:08:04.570Z,976.53
2018-11-21T07:09:05.026Z,976.70
2018-11-21T07:10:05.468Z,976.67
2018-11-21T07:11:04.564Z,976.67
2018-11-21T07:12:04.565Z,976.77
2018-11-21T07:13:11.324Z,976.72
2018-11-21T07:14:07.663Z,976.74
2018-11-21T07:15:05.259Z,976.73
2018-11-21T07:16:04.546Z,976.64
2018-11-21T07:17:04.496Z,976.80
2018-11-21T07:18:04.616Z,976.67
2018-11-21T07:19:05.291Z,976.47
2018-11-21T07:20:05.389Z,976.61
2018-11-21T07:21:05.464Z,976.73
2018-11-21T07:22:04.603Z,976.77
2018-11-21T07:23:04.978Z,976.86
2018-11-21T07:24:04.498Z,976.74
2018-11-21T07:25:04.629Z,976.83
2018-11-21T07:26:04.517Z,976.67
2018-11-21T07:27:04.511Z,976.73
2018-11-21T07:28:13.548Z,976.77
2018-11-21T07:29:04.901Z,976.77
2018-11-21T07:30:04.846Z,976.99
2018-11-21T07:31:05.371Z,976.88
2018-11-21T07:32:04.694Z,976.99
2018-11-21T07:33:04.936Z,976.88
2018-11-21T07:34:04.910Z,976.83
2018-11-21T07:35:05.021Z,976.94
2018-11-21T07:36:05.043Z,976.83
2018-11-21T07:37:05.247Z,977.05
2018-11-21T07:38:05.394Z,976.85
2018-11-21T07:39:04.989Z,976.94
2018-11-21T07:40:05.543Z,976.83
2018-11-21T07:41:04.510Z,976.94
2018-11-21T07:42:05.258Z,976.99
2018-11-21T07:43:05.244Z,976.91
2018-11-21T07:44:05.247Z,976.85
2018-11-21T07:45:05.344Z,976.91
2018-11-21T07:46:04.807Z,976.97
2018-11-21T07:47:05.126Z,976.80
2018-11-21T07:48:05.523Z,976.85
2018-11-21T07:49:04.942Z,976.99
2018-11-21T07:50:05.215Z,976.94
2018-11-21T07:51:05.223Z,976.72
2018-11-21T07:52:04.856Z,976.85
2018-11-21T07:53:05.212Z,976.96
2018-11-21T07:54:05.116Z,976.80
2018-11-21T07:55:05.176Z,976.82
2018-11-21T07:56:05.352Z,976.80
2018-11-21T07:57:05.479Z,976.91
2018-11-21T07:58:04.478Z,976.74
2018-11-21T07:59:05.111Z,976.91
2018-11-21T08:00:10.234Z,976.96
2018-11-21T08:01:05.057Z,976.80
2018-11-21T08:02:05.386Z,976.80
2018-11-21T08:03:05.108Z,976.82
2018-11-21T08:04:05.399Z,977.02
2018-11-21T08:05:05.454Z,976.85
2018-11-21T08:06:04.503Z,976.93
2018-11-21T08:07:05.008Z,976.93
2018-11-21T08:08:05.027Z,977.13
2018-11-21T08:09:04.468Z,976.96
2018-11-21T08:10:04.613Z,977.07
2018-11-21T08:11:04.880Z,977.13
2018-11-21T08:12:04.991Z,977.02
2018-11-21T08:13:05.429Z,977.10
2018-11-21T08:14:05.436Z,977.10
2018-11-21T08:15:04.664Z,977.04
2018-11-21T08:16:04.895Z,977.27
2018-11-21T08:17:05.062Z,977.10
2018-11-21T08:18:05.352Z,977.18
2018-11-21T08:19:05.038Z,977.15
2018-11-21T08:20:05.283Z,977.02
2018-11-21T08:21:04.812Z,977.15
2018-11-21T08:22:04.886Z,977.27
2018-11-21T08:23:05.468Z,977.04
2018-11-21T08:24:04.950Z,977.29
2018-11-21T08:25:04.840Z,977.10
2018-11-21T08:26:05.124Z,977.24
2018-11-21T08:27:05.102Z,977.16
2018-11-21T08:28:04.778Z,977.32
2018-11-21T08:29:04.793Z,977.24
2018-11-21T08:30:04.768Z,977.13
2018-11-21T08:31:04.745Z,977.24
2018-11-21T08:32:05.267Z,977.30
2018-11-21T08:33:04.863Z,977.27
2018-11-21T08:34:10.059Z,977.27
2018-11-21T08:35:04.459Z,977.46
2018-11-21T08:36:04.679Z,977.38
2018-11-21T08:37:05.013Z,977.29
2018-11-21T08:38:05.431Z,977.38
2018-11-21T08:39:05.483Z,977.43
2018-11-21T08:40:05.398Z,977.35
2018-11-21T08:41:05.063Z,977.41
2018-11-21T08:42:05.180Z,977.38
2018-11-21T08:43:05.327Z,977.38
2018-11-21T08:44:04.836Z,977.43
2018-11-21T08:45:05.224Z,977.46
2018-11-21T08:46:05.271Z,977.49
2018-11-21T08:47:05.321Z,977.60
2018-11-21T08:48:05.352Z,977.46
2018-11-21T08:49:05.539Z,977.38
2018-11-21T08:50:05.446Z,977.38
2018-11-21T08:51:05.459Z,977.43
2018-11-21T08:52:04.894Z,977.32
2018-11-21T08:53:04.913Z,977.57
2018-11-21T08:54:04.883Z,977.40
2018-11-21T08:55:09.433Z,977.49
2018-11-21T08:56:04.916Z,977.46
2018-11-21T08:57:04.960Z,977.35
2018-11-21T08:58:04.945Z,977.29
2018-11-21T08:59:04.943Z,977.24
2018-11-21T09:00:04.969Z,977.35
2018-11-21T09:01:05.231Z,977.40
2018-11-21T09:02:05.269Z,977.57
2018-11-21T09:03:05.376Z,977.40
2018-11-21T09:04:05.352Z,977.26
2018-11-21T09:05:04.757Z,977.26
2018-11-21T09:06:04.990Z,977.32
2018-11-21T09:07:05.293Z,977.40
2018-11-21T09:08:05.264Z,977.43
2018-11-21T09:09:05.324Z,977.37
2018-11-21T09:10:04.708Z,977.40
2018-11-21T09:11:04.800Z,977.32
2018-11-21T09:12:09.163Z,977.35
2018-11-21T09:13:04.921Z,977.46
2018-11-21T09:14:05.046Z,977.46
2018-11-21T09:15:05.086Z,977.37
2018-11-21T09:16:05.356Z,977.46
2018-11-21T09:17:04.902Z,977.46
2018-11-21T09:18:04.575Z,977.51
2018-11-21T09:19:05.009Z,977.43
2018-11-21T09:20:05.117Z,977.40
2018-11-21T09:21:05.431Z,977.46
2018-11-21T09:22:04.799Z,977.46
2018-11-21T09:23:05.405Z,977.54
2018-11-21T09:24:05.333Z,977.43
2018-11-21T09:25:04.776Z,977.51
2018-11-21T09:26:04.953Z,977.40
2018-11-21T09:27:05.110Z,977.40
2018-11-21T09:28:09.572Z,977.40
2018-11-21T09:29:04.941Z,977.40
2018-11-21T09:30:05.033Z,977.57
2018-11-21T09:31:04.951Z,977.60
2018-11-21T09:32:04.929Z,977.48
2018-11-21T09:33:04.974Z,977.40
2018-11-21T09:34:05.102Z,977.40
2018-11-21T09:35:05.201Z,977.37
2018-11-21T09:36:05.327Z,977.37
2018-11-21T09:37:05.311Z,977.48
2018-11-21T09:38:04.867Z,977.51
2018-11-21T09:39:04.897Z,977.48
2018-11-21T09:40:04.784Z,977.59
2018-11-21T09:41:04.929Z,977.62
2018-11-21T09:42:05.378Z,977.51
2018-11-21T09:43:04.905Z,977.59
2018-11-21T09:44:05.117Z,977.48
2018-11-21T09:45:05.285Z,977.62
2018-11-21T09:46:05.134Z,977.51
2018-11-21T09:47:05.149Z,977.59
2018-11-21T09:48:10.489Z,977.56
2018-11-21T09:49:04.899Z,977.56
2018-11-21T09:50:05.435Z,977.78
2018-11-21T09:51:04.760Z,977.59
2018-11-21T09:52:04.708Z,977.62
2018-11-21T09:53:04.878Z,977.67
2018-11-21T09:54:04.807Z,977.62
2018-11-21T09:55:05.000Z,977.59
2018-11-21T09:56:04.696Z,977.56
2018-11-21T09:57:04.916Z,977.50
2018-11-21T09:58:04.558Z,977.48
2018-11-21T09:59:04.760Z,977.45
2018-11-21T10:00:04.974Z,977.56
2018-11-21T10:01:05.167Z,977.56
2018-11-21T10:02:04.525Z,977.48
2018-11-21T10:03:04.686Z,977.66
2018-11-21T10:04:04.704Z,977.42
2018-11-21T10:05:05.265Z,977.48
2018-11-21T10:06:04.842Z,977.50
2018-11-21T10:07:04.899Z,977.47
2018-11-21T10:08:04.904Z,977.56
2018-11-21T10:09:04.945Z,977.74
2018-11-21T10:10:05.293Z,977.56
2018-11-21T10:11:04.701Z,977.59
2018-11-21T10:12:04.710Z,977.56
2018-11-21T10:13:04.743Z,977.72
2018-11-21T10:14:04.911Z,977.53
2018-11-21T10:15:05.582Z,977.53
2018-11-21T10:16:04.839Z,977.56
2018-11-21T10:17:05.343Z,977.61
2018-11-21T10:18:04.535Z,977.69
2018-11-21T10:19:04.680Z,977.74
2018-11-21T10:20:04.746Z,977.77
2018-11-21T10:21:04.771Z,977.69
2018-11-21T10:22:05.346Z,977.80
2018-11-21T10:23:05.419Z,977.61
2018-11-21T10:24:05.427Z,977.71
2018-11-21T10:25:04.651Z,977.71
2018-11-21T10:26:05.049Z,977.71
2018-11-21T10:27:05.071Z,977.85
2018-11-21T10:28:10.081Z,977.82
2018-11-21T10:29:04.511Z,977.77
2018-11-21T10:30:04.740Z,977.85
2018-11-21T10:31:04.949Z,977.93
2018-11-21T10:32:04.818Z,977.79
2018-11-21T10:33:05.152Z,977.88
2018-11-21T10:34:05.067Z,977.82
2018-11-21T10:35:04.596Z,977.61
2018-11-21T10:36:05.301Z,977.58
2018-11-21T10:37:04.467Z,977.68
2018-11-21T10:38:04.503Z,977.74
2018-11-21T10:39:04.699Z,977.65
2018-11-21T10:40:04.907Z,977.61
2018-11-21T10:41:04.620Z,977.65
2018-11-21T10:42:04.545Z,977.52
2018-11-21T10:43:04.631Z,977.58
2018-11-21T10:44:04.935Z,977.79
2018-11-21T10:45:04.992Z,977.76
2018-11-21T10:46:04.595Z,977.71
2018-11-21T10:47:05.133Z,977.88
2018-11-21T10:48:05.149Z,977.79
2018-11-21T10:49:05.292Z,977.82
2018-11-21T10:50:04.768Z,977.68
2018-11-21T10:51:05.675Z,977.85
2018-11-21T10:52:05.249Z,977.74
2018-11-21T10:53:05.357Z,977.71
2018-11-21T10:54:04.609Z,977.76
2018-11-21T10:55:04.885Z,977.65
2018-11-21T10:56:04.944Z,977.79
2018-11-21T10:57:04.956Z,977.60
2018-11-21T10:58:05.046Z,977.55
2018-11-21T10:59:04.988Z,977.55
2018-11-21T11:00:05.033Z,977.74
2018-11-21T11:01:05.167Z,977.65
2018-11-21T11:02:05.234Z,977.60
2018-11-21T11:03:04.834Z,977.58
2018-11-21T11:04:04.792Z,977.79
2018-11-21T11:05:04.930Z,977.74
2018-11-21T11:06:04.583Z,977.71
2018-11-21T11:07:04.644Z,977.71
2018-11-21T11:08:04.816Z,977.82
2018-11-21T11:09:04.913Z,977.76
2018-11-21T11:10:04.768Z,977.87
2018-11-21T11:11:05.487Z,977.76
2018-11-21T11:12:05.418Z,977.68
2018-11-21T11:13:05.042Z,977.71
2018-11-21T11:14:05.411Z,977.73
2018-11-21T11:15:04.534Z,977.68
2018-11-21T11:16:05.092Z,977.76
2018-11-21T11:17:05.046Z,977.82
2018-11-21T11:18:05.254Z,977.82
2018-11-21T11:19:04.833Z,977.82
2018-11-21T11:20:09.025Z,977.65
2018-11-21T11:21:04.584Z,977.76
2018-11-21T11:22:04.672Z,977.73
2018-11-21T11:23:05.221Z,977.82
2018-11-21T11:24:04.971Z,977.68
2018-11-21T11:25:04.617Z,977.65
2018-11-21T11:26:05.115Z,977.73
2018-11-21T11:27:04.525Z,977.73
2018-11-21T11:28:14.692Z,977.87
2018-11-21T11:29:05.273Z,977.70
2018-11-21T11:30:05.469Z,977.81
2018-11-21T11:31:05.336Z,977.84
2018-11-21T11:32:04.708Z,977.84
2018-11-21T11:33:04.720Z,977.76
2018-11-21T11:34:04.975Z,977.73
2018-11-21T11:35:05.160Z,977.78
2018-11-21T11:36:05.161Z,977.70
2018-11-21T11:37:05.313Z,977.78
2018-11-21T11:38:05.490Z,977.87
2018-11-21T11:39:05.472Z,977.73
2018-11-21T11:40:04.487Z,977.70
2018-11-21T11:41:04.506Z,977.78
2018-11-21T11:42:04.583Z,977.75
2018-11-21T11:43:05.195Z,977.54
2018-11-21T11:44:05.159Z,977.78
2018-11-21T11:45:05.216Z,977.75
2018-11-21T11:46:04.493Z,977.84
2018-11-21T11:47:04.584Z,977.95
2018-11-21T11:48:05.225Z,977.78
2018-11-21T11:49:05.165Z,977.75
2018-11-21T11:50:04.691Z,977.81
2018-11-21T11:51:04.868Z,977.89
2018-11-21T11:52:05.187Z,977.89
2018-11-21T11:53:05.341Z,977.78
2018-11-21T11:54:05.396Z,977.78
2018-11-21T11:55:05.439Z,977.92
2018-11-21T11:56:05.488Z,977.84
2018-11-21T11:57:04.696Z,977.84
2018-11-21T11:58:04.602Z,978.00
2018-11-21T11:59:09.732Z,977.92
2018-11-21T12:00:05.054Z,977.84
2018-11-21T12:01:04.576Z,977.81
2018-11-21T12:02:05.089Z,977.89
2018-11-21T12:03:05.167Z,977.89
2018-11-21T12:04:04.976Z,977.81
2018-11-21T12:05:05.388Z,977.92
2018-11-21T12:06:04.813Z,977.95
2018-11-21T12:07:05.313Z,977.86
2018-11-21T12:08:04.540Z,977.86
2018-11-21T12:09:04.766Z,977.92
2018-11-21T12:10:04.761Z,977.81
2018-11-21T12:11:04.674Z,977.86
2018-11-21T12:12:05.401Z,977.92
2018-11-21T12:13:05.050Z,977.86
2018-11-21T12:14:04.511Z,977.92
2018-11-21T12:15:05.024Z,977.83
2018-11-21T12:16:04.567Z,977.81
2018-11-21T12:17:05.282Z,977.86
2018-11-21T12:18:04.634Z,977.78
2018-11-21T12:19:04.792Z,977.92
2018-11-21T12:20:04.681Z,977.86
2018-11-21T12:21:04.977Z,977.92
2018-11-21T12:22:05.040Z,977.69
2018-11-21T12:23:04.903Z,977.80
2018-11-21T12:24:04.842Z,977.94
2018-11-21T12:25:04.918Z,977.86
2018-11-21T12:26:11.182Z,977.83
2018-11-21T12:27:04.764Z,977.75
2018-11-21T12:28:10.019Z,977.86